sensor_id;sensor_type;location;lat;lon;timestamp;temperature;humidity
47590;DHT22;33316;52.298;9.056;2023-04-06T00:01:56;3.80;68.70
47590;DHT22;33316;52.298;9.056;2023-04-06T00:04:22;3.90;68.40
47590;DHT22;33316;52.298;9.056;2023-04-06T00:06:50;3.90;68.20
47590;DHT22;33316;52.298;9.056;2023-04-06T00:09:16;3.90;68.60
47590;DHT22;33316;52.298;9.056;2023-04-06T00:11:43;3.90;68.70
47590;DHT22;33316;52.298;9.056;2023-04-06T00:14:11;3.90;69.00
47590;DHT22;33316;52.298;9.056;2023-04-06T00:16:40;3.80;69.20
47590;DHT22;33316;52.298;9.056;2023-04-06T00:19:06;3.80;69.60
47590;DHT22;33316;52.298;9.056;2023-04-06T00:21:33;3.70;70.00
47590;DHT22;33316;52.298;9.056;2023-04-06T00:23:59;3.60;70.10
47590;DHT22;33316;52.298;9.056;2023-04-06T00:26:26;3.50;70.20
47590;DHT22;33316;52.298;9.056;2023-04-06T00:28:52;3.50;70.10
47590;DHT22;33316;52.298;9.056;2023-04-06T00:31:20;3.50;69.70
47590;DHT22;33316;52.298;9.056;2023-04-06T00:33:47;3.50;69.40
47590;DHT22;33316;52.298;9.056;2023-04-06T00:36:14;3.60;69.60
47590;DHT22;33316;52.298;9.056;2023-04-06T00:38:40;3.60;69.70
47590;DHT22;33316;52.298;9.056;2023-04-06T00:41:07;3.60;69.20
47590;DHT22;33316;52.298;9.056;2023-04-06T00:43:33;3.70;68.60
47590;DHT22;33316;52.298;9.056;2023-04-06T00:46:00;3.70;68.00
47590;DHT22;33316;52.298;9.056;2023-04-06T00:48:28;3.80;67.60
47590;DHT22;33316;52.298;9.056;2023-04-06T00:50:56;3.80;67.10
47590;DHT22;33316;52.298;9.056;2023-04-06T00:53:23;3.90;66.90
47590;DHT22;33316;52.298;9.056;2023-04-06T00:55:50;3.90;66.50
47590;DHT22;33316;52.298;9.056;2023-04-06T00:58:16;3.90;66.70
47590;DHT22;33316;52.298;9.056;2023-04-06T01:00:43;4.00;66.80
47590;DHT22;33316;52.298;9.056;2023-04-06T01:03:09;4.00;66.90
47590;DHT22;33316;52.298;9.056;2023-04-06T01:05:37;3.90;67.10
47590;DHT22;33316;52.298;9.056;2023-04-06T02:38:55;3.30;68.40
47590;DHT22;33316;52.298;9.056;2023-04-06T02:41:22;3.30;68.00
47590;DHT22;33316;52.298;9.056;2023-04-06T02:43:48;3.30;68.00
47590;DHT22;33316;52.298;9.056;2023-04-06T02:46:15;3.40;67.80
47590;DHT22;33316;52.298;9.056;2023-04-06T02:48:41;3.40;67.60
47590;DHT22;33316;52.298;9.056;2023-04-06T02:51:08;3.50;67.40
47590;DHT22;33316;52.298;9.056;2023-04-06T02:53:34;3.50;67.40
47590;DHT22;33316;52.298;9.056;2023-04-06T02:56:02;3.50;67.70
47590;DHT22;33316;52.298;9.056;2023-04-06T02:58:29;3.50;67.80
47590;DHT22;33316;52.298;9.056;2023-04-06T03:00:55;3.40;68.20
47590;DHT22;33316;52.298;9.056;2023-04-06T03:03:22;3.40;68.40
47590;DHT22;33316;52.298;9.056;2023-04-06T03:05:48;3.40;68.50
47590;DHT22;33316;52.298;9.056;2023-04-06T03:08:15;3.30;68.50
47590;DHT22;33316;52.298;9.056;2023-04-06T03:10:41;3.30;68.20
47590;DHT22;33316;52.298;9.056;2023-04-06T03:13:09;3.30;67.80
47590;DHT22;33316;52.298;9.056;2023-04-06T03:15:36;3.40;67.60
47590;DHT22;33316;52.298;9.056;2023-04-06T03:18:02;3.40;67.40
47590;DHT22;33316;52.298;9.056;2023-04-06T03:20:29;3.40;67.10
47590;DHT22;33316;52.298;9.056;2023-04-06T03:22:55;3.50;67.00
47590;DHT22;33316;52.298;9.056;2023-04-06T03:25:22;3.50;66.80
47590;DHT22;33316;52.298;9.056;2023-04-06T03:27:48;3.50;66.90
47590;DHT22;33316;52.298;9.056;2023-04-06T03:30:16;3.50;66.80
47590;DHT22;33316;52.298;9.056;2023-04-06T03:32:43;3.50;66.60
47590;DHT22;33316;52.298;9.056;2023-04-06T03:35:10;3.50;66.50
47590;DHT22;33316;52.298;9.056;2023-04-06T03:37:36;3.60;66.40
47590;DHT22;33316;52.298;9.056;2023-04-06T03:40:04;3.60;66.40
47590;DHT22;33316;52.298;9.056;2023-04-06T03:42:30;3.60;66.30
47590;DHT22;33316;52.298;9.056;2023-04-06T03:44:57;3.60;66.30
47590;DHT22;33316;52.298;9.056;2023-04-06T03:47:25;3.60;66.20
47590;DHT22;33316;52.298;9.056;2023-04-06T03:49:52;3.60;66.10
47590;DHT22;33316;52.298;9.056;2023-04-06T03:52:18;3.60;66.00
47590;DHT22;33316;52.298;9.056;2023-04-06T03:54:48;3.60;66.00
47590;DHT22;33316;52.298;9.056;2023-04-06T03:57:14;3.60;65.80
47590;DHT22;33316;52.298;9.056;2023-04-06T03:59:41;3.60;65.80
47590;DHT22;33316;52.298;9.056;2023-04-06T04:02:07;3.60;65.80
47590;DHT22;33316;52.298;9.056;2023-04-06T04:04:35;3.60;65.70
47590;DHT22;33316;52.298;9.056;2023-04-06T04:07:01;3.60;65.70
47590;DHT22;33316;52.298;9.056;2023-04-06T04:09:28;3.60;65.70
47590;DHT22;33316;52.298;9.056;2023-04-06T04:11:55;3.60;65.60
47590;DHT22;33316;52.298;9.056;2023-04-06T04:14:21;3.60;65.50
47590;DHT22;33316;52.298;9.056;2023-04-06T04:16:48;3.60;65.60
47590;DHT22;33316;52.298;9.056;2023-04-06T04:19:14;3.60;65.50
47590;DHT22;33316;52.298;9.056;2023-04-06T04:21:46;3.70;65.50
47590;DHT22;33316;52.298;9.056;2023-04-06T04:24:12;3.70;66.40
47590;DHT22;33316;52.298;9.056;2023-04-06T04:26:39;3.70;65.60
47590;DHT22;33316;52.298;9.056;2023-04-06T04:29:06;3.60;65.60
47590;DHT22;33316;52.298;9.056;2023-04-06T04:31:33;3.60;65.60
47590;DHT22;33316;52.298;9.056;2023-04-06T04:33:59;3.60;65.60
47590;DHT22;33316;52.298;9.056;2023-04-06T04:36:26;3.60;65.60
47590;DHT22;33316;52.298;9.056;2023-04-06T04:38:54;3.60;65.60
47590;DHT22;33316;52.298;9.056;2023-04-06T04:41:21;3.60;65.70
47590;DHT22;33316;52.298;9.056;2023-04-06T04:43:47;3.60;65.70
47590;DHT22;33316;52.298;9.056;2023-04-06T04:46:14;3.60;65.70
47590;DHT22;33316;52.298;9.056;2023-04-06T04:48:40;3.60;65.70
47590;DHT22;33316;52.298;9.056;2023-04-06T04:51:07;3.60;65.70
47590;DHT22;33316;52.298;9.056;2023-04-06T04:53:33;3.60;65.70
47590;DHT22;33316;52.298;9.056;2023-04-06T04:56:01;3.60;65.70
47590;DHT22;33316;52.298;9.056;2023-04-06T04:58:28;3.60;65.70
47590;DHT22;33316;52.298;9.056;2023-04-06T05:00:54;3.60;65.60
47590;DHT22;33316;52.298;9.056;2023-04-06T05:03:21;3.60;65.60
47590;DHT22;33316;52.298;9.056;2023-04-06T05:05:49;3.70;65.60
47590;DHT22;33316;52.298;9.056;2023-04-06T05:08:15;3.70;65.60
47590;DHT22;33316;52.298;9.056;2023-04-06T05:10:42;3.70;65.60
47590;DHT22;33316;52.298;9.056;2023-04-06T05:13:10;3.70;65.50
47590;DHT22;33316;52.298;9.056;2023-04-06T05:15:37;3.70;65.50
47590;DHT22;33316;52.298;9.056;2023-04-06T05:18:05;3.70;65.60
47590;DHT22;33316;52.298;9.056;2023-04-06T05:20:32;3.80;65.60
47590;DHT22;33316;52.298;9.056;2023-04-06T05:22:58;3.80;65.60
47590;DHT22;33316;52.298;9.056;2023-04-06T05:25:25;3.80;65.60
47590;DHT22;33316;52.298;9.056;2023-04-06T05:27:51;3.80;65.50
47590;DHT22;33316;52.298;9.056;2023-04-06T05:30:20;3.80;65.60
47590;DHT22;33316;52.298;9.056;2023-04-06T05:32:46;3.90;65.70
47590;DHT22;33316;52.298;9.056;2023-04-06T05:35:13;4.00;65.60
47590;DHT22;33316;52.298;9.056;2023-04-06T05:37:39;4.10;65.70
47590;DHT22;33316;52.298;9.056;2023-04-06T05:40:06;4.20;65.50
47590;DHT22;33316;52.298;9.056;2023-04-06T05:42:35;4.30;65.40
47590;DHT22;33316;52.298;9.056;2023-04-06T05:45:03;4.50;65.20
47590;DHT22;33316;52.298;9.056;2023-04-06T05:47:31;4.70;65.10
47590;DHT22;33316;52.298;9.056;2023-04-06T05:49:58;4.80;64.70
47590;DHT22;33316;52.298;9.056;2023-04-06T05:52:24;5.00;64.30
47590;DHT22;33316;52.298;9.056;2023-04-06T05:54:51;5.10;64.00
47590;DHT22;33316;52.298;9.056;2023-04-06T05:57:17;5.30;63.80
47590;DHT22;33316;52.298;9.056;2023-04-06T05:59:44;5.50;63.30
47590;DHT22;33316;52.298;9.056;2023-04-06T06:02:10;5.60;62.90
47590;DHT22;33316;52.298;9.056;2023-04-06T06:04:38;5.70;62.60
47590;DHT22;33316;52.298;9.056;2023-04-06T06:07:05;5.80;62.20
47590;DHT22;33316;52.298;9.056;2023-04-06T06:09:31;6.00;62.10
47590;DHT22;33316;52.298;9.056;2023-04-06T06:11:58;6.10;61.90
47590;DHT22;33316;52.298;9.056;2023-04-06T06:14:24;6.20;61.40
47590;DHT22;33316;52.298;9.056;2023-04-06T06:16:53;6.30;61.10
47590;DHT22;33316;52.298;9.056;2023-04-06T06:19:20;6.40;61.00
47590;DHT22;33316;52.298;9.056;2023-04-06T06:21:48;6.50;60.20
47590;DHT22;33316;52.298;9.056;2023-04-06T06:24:14;6.60;60.60
47590;DHT22;33316;52.298;9.056;2023-04-06T06:26:41;6.70;60.00
47590;DHT22;33316;52.298;9.056;2023-04-06T06:29:08;6.80;60.00
47590;DHT22;33316;52.298;9.056;2023-04-06T06:31:34;6.90;60.00
47590;DHT22;33316;52.298;9.056;2023-04-06T06:34:01;7.00;59.80
47590;DHT22;33316;52.298;9.056;2023-04-06T06:36:28;7.10;59.50
47590;DHT22;33316;52.298;9.056;2023-04-06T06:38:57;7.20;59.60
47590;DHT22;33316;52.298;9.056;2023-04-06T06:41:25;7.30;59.50
47590;DHT22;33316;52.298;9.056;2023-04-06T06:43:52;7.40;59.20
47590;DHT22;33316;52.298;9.056;2023-04-06T06:46:19;7.50;59.50
47590;DHT22;33316;52.298;9.056;2023-04-06T06:48:46;7.60;59.30
47590;DHT22;33316;52.298;9.056;2023-04-06T06:51:12;7.70;59.00
47590;DHT22;33316;52.298;9.056;2023-04-06T06:53:39;7.80;59.00
47590;DHT22;33316;52.298;9.056;2023-04-06T06:56:07;7.80;58.30
47590;DHT22;33316;52.298;9.056;2023-04-06T06:58:33;7.90;58.30
47590;DHT22;33316;52.298;9.056;2023-04-06T07:01:00;8.00;58.10
47590;DHT22;33316;52.298;9.056;2023-04-06T07:03:26;8.10;57.90
47590;DHT22;33316;52.298;9.056;2023-04-06T07:05:53;8.10;58.30
47590;DHT22;33316;52.298;9.056;2023-04-06T07:08:20;8.20;57.90
47590;DHT22;33316;52.298;9.056;2023-04-06T07:10:46;8.30;58.00
47590;DHT22;33316;52.298;9.056;2023-04-06T07:13:21;8.40;57.90
47590;DHT22;33316;52.298;9.056;2023-04-06T07:15:55;8.50;57.20
47590;DHT22;33316;52.298;9.056;2023-04-06T07:18:25;8.50;56.70
47590;DHT22;33316;52.298;9.056;2023-04-06T07:20:52;8.60;57.40
47590;DHT22;33316;52.298;9.056;2023-04-06T07:23:19;8.60;56.90
47590;DHT22;33316;52.298;9.056;2023-04-06T07:25:45;8.70;56.50
47590;DHT22;33316;52.298;9.056;2023-04-06T07:28:12;8.70;55.80
47590;DHT22;33316;52.298;9.056;2023-04-06T07:30:39;8.70;56.40
47590;DHT22;33316;52.298;9.056;2023-04-06T07:33:06;8.90;56.60
47590;DHT22;33316;52.298;9.056;2023-04-06T07:35:32;8.90;56.60
47590;DHT22;33316;52.298;9.056;2023-04-06T07:38:00;9.00;56.10
47590;DHT22;33316;52.298;9.056;2023-04-06T07:40:26;9.10;56.40
47590;DHT22;33316;52.298;9.056;2023-04-06T07:42:53;9.10;55.70
47590;DHT22;33316;52.298;9.056;2023-04-06T07:45:19;9.20;55.70
47590;DHT22;33316;52.298;9.056;2023-04-06T07:47:47;9.20;55.60
47590;DHT22;33316;52.298;9.056;2023-04-06T07:50:15;9.30;55.70
47590;DHT22;33316;52.298;9.056;2023-04-06T07:52:41;9.30;55.60
47590;DHT22;33316;52.298;9.056;2023-04-06T07:55:08;9.30;55.40
47590;DHT22;33316;52.298;9.056;2023-04-06T07:57:35;9.40;55.40
47590;DHT22;33316;52.298;9.056;2023-04-06T08:00:01;9.40;55.20
47590;DHT22;33316;52.298;9.056;2023-04-06T08:02:29;9.50;55.00
47590;DHT22;33316;52.298;9.056;2023-04-06T08:04:56;9.60;54.90
47590;DHT22;33316;52.298;9.056;2023-04-06T08:07:23;9.60;54.80
47590;DHT22;33316;52.298;9.056;2023-04-06T08:09:50;9.70;55.00
47590;DHT22;33316;52.298;9.056;2023-04-06T08:12:16;9.70;54.40
47590;DHT22;33316;52.298;9.056;2023-04-06T08:14:43;9.70;54.20
47590;DHT22;33316;52.298;9.056;2023-04-06T08:17:09;9.80;53.10
47590;DHT22;33316;52.298;9.056;2023-04-06T08:19:36;9.80;53.80
47590;DHT22;33316;52.298;9.056;2023-04-06T08:22:04;9.90;53.50
47590;DHT22;33316;52.298;9.056;2023-04-06T08:24:30;9.90;53.90
47590;DHT22;33316;52.298;9.056;2023-04-06T08:26:57;10.00;53.80
47590;DHT22;33316;52.298;9.056;2023-04-06T08:29:24;10.10;54.10
47590;DHT22;33316;52.298;9.056;2023-04-06T08:31:50;10.20;53.40
47590;DHT22;33316;52.298;9.056;2023-04-06T08:34:17;10.20;53.60
47590;DHT22;33316;52.298;9.056;2023-04-06T08:36:43;10.20;53.40
47590;DHT22;33316;52.298;9.056;2023-04-06T08:39:12;10.40;53.30
47590;DHT22;33316;52.298;9.056;2023-04-06T08:41:41;10.40;52.60
47590;DHT22;33316;52.298;9.056;2023-04-06T08:44:07;10.50;53.00
47590;DHT22;33316;52.298;9.056;2023-04-06T08:46:34;10.50;52.90
47590;DHT22;33316;52.298;9.056;2023-04-06T08:49:01;10.60;52.60
47590;DHT22;33316;52.298;9.056;2023-04-06T08:51:28;10.60;53.10
47590;DHT22;33316;52.298;9.056;2023-04-06T08:53:55;10.70;52.70
47590;DHT22;33316;52.298;9.056;2023-04-06T08:56:24;10.70;53.20
47590;DHT22;33316;52.298;9.056;2023-04-06T08:58:51;10.80;52.10
47590;DHT22;33316;52.298;9.056;2023-04-06T09:01:20;10.80;52.00
47590;DHT22;33316;52.298;9.056;2023-04-06T09:03:48;10.80;52.20
47590;DHT22;33316;52.298;9.056;2023-04-06T09:06:15;10.90;52.60
47590;DHT22;33316;52.298;9.056;2023-04-06T09:08:42;11.00;52.90
47590;DHT22;33316;52.298;9.056;2023-04-06T09:11:08;11.10;52.00
47590;DHT22;33316;52.298;9.056;2023-04-06T09:13:46;11.20;52.20
47590;DHT22;33316;52.298;9.056;2023-04-06T09:16:13;11.20;50.20
47590;DHT22;33316;52.298;9.056;2023-04-06T09:18:39;11.30;51.40
47590;DHT22;33316;52.298;9.056;2023-04-06T09:21:06;11.30;51.50
47590;DHT22;33316;52.298;9.056;2023-04-06T09:23:33;11.30;50.50
47590;DHT22;33316;52.298;9.056;2023-04-06T09:26:06;11.40;51.30
47590;DHT22;33316;52.298;9.056;2023-04-06T09:28:47;11.50;51.20
47590;DHT22;33316;52.298;9.056;2023-04-06T09:31:14;11.50;51.10
47590;DHT22;33316;52.298;9.056;2023-04-06T09:33:41;11.60;51.00
47590;DHT22;33316;52.298;9.056;2023-04-06T09:36:08;11.60;50.60
47590;DHT22;33316;52.298;9.056;2023-04-06T09:38:50;11.70;50.60
47590;DHT22;33316;52.298;9.056;2023-04-06T09:41:20;11.70;51.20
47590;DHT22;33316;52.298;9.056;2023-04-06T09:43:48;11.80;51.20
47590;DHT22;33316;52.298;9.056;2023-04-06T09:46:15;11.80;51.20
47590;DHT22;33316;52.298;9.056;2023-04-06T09:48:43;11.90;50.90
47590;DHT22;33316;52.298;9.056;2023-04-06T09:51:10;11.90;50.80
47590;DHT22;33316;52.298;9.056;2023-04-06T09:53:38;12.00;50.40
47590;DHT22;33316;52.298;9.056;2023-04-06T09:56:07;12.00;50.30
47590;DHT22;33316;52.298;9.056;2023-04-06T09:58:38;12.00;49.30
47590;DHT22;33316;52.298;9.056;2023-04-06T10:01:09;12.00;49.60
47590;DHT22;33316;52.298;9.056;2023-04-06T10:03:39;12.00;49.20
47590;DHT22;33316;52.298;9.056;2023-04-06T10:06:09;12.00;49.50
47590;DHT22;33316;52.298;9.056;2023-04-06T10:08:38;12.10;50.00
47590;DHT22;33316;52.298;9.056;2023-04-06T10:11:06;12.20;50.20
47590;DHT22;33316;52.298;9.056;2023-04-06T10:13:33;12.20;49.40
47590;DHT22;33316;52.298;9.056;2023-04-06T10:16:00;12.20;48.90
47590;DHT22;33316;52.298;9.056;2023-04-06T10:18:28;12.20;49.20
47590;DHT22;33316;52.298;9.056;2023-04-06T10:20:56;12.30;49.30
47590;DHT22;33316;52.298;9.056;2023-04-06T10:23:24;12.30;48.40
47590;DHT22;33316;52.298;9.056;2023-04-06T10:25:53;12.40;48.40
47590;DHT22;33316;52.298;9.056;2023-04-06T10:28:20;12.40;48.00
47590;DHT22;33316;52.298;9.056;2023-04-06T10:30:47;12.50;48.30
47590;DHT22;33316;52.298;9.056;2023-04-06T10:33:13;12.60;46.40
47590;DHT22;33316;52.298;9.056;2023-04-06T10:35:41;12.60;46.30
47590;DHT22;33316;52.298;9.056;2023-04-06T10:38:08;12.60;45.70
47590;DHT22;33316;52.298;9.056;2023-04-06T10:40:35;12.60;46.50
47590;DHT22;33316;52.298;9.056;2023-04-06T10:43:09;12.70;46.70
47590;DHT22;33316;52.298;9.056;2023-04-06T10:45:35;12.70;46.50
47590;DHT22;33316;52.298;9.056;2023-04-06T10:48:12;12.80;47.10
47590;DHT22;33316;52.298;9.056;2023-04-06T10:50:38;12.80;46.60
47590;DHT22;33316;52.298;9.056;2023-04-06T10:53:07;12.90;47.00
47590;DHT22;33316;52.298;9.056;2023-04-06T10:55:33;12.90;47.00
47590;DHT22;33316;52.298;9.056;2023-04-06T10:58:05;12.90;46.20
47590;DHT22;33316;52.298;9.056;2023-04-06T11:00:32;12.90;46.40
47590;DHT22;33316;52.298;9.056;2023-04-06T11:02:58;13.00;45.70
47590;DHT22;33316;52.298;9.056;2023-04-06T11:05:25;12.90;45.50
47590;DHT22;33316;52.298;9.056;2023-04-06T11:07:52;12.90;45.90
47590;DHT22;33316;52.298;9.056;2023-04-06T11:10:21;13.00;45.90
47590;DHT22;33316;52.298;9.056;2023-04-06T11:12:52;13.00;45.10
47590;DHT22;33316;52.298;9.056;2023-04-06T11:15:19;13.00;45.60
47590;DHT22;33316;52.298;9.056;2023-04-06T11:17:45;13.00;45.40
47590;DHT22;33316;52.298;9.056;2023-04-06T11:20:12;13.00;44.90
47590;DHT22;33316;52.298;9.056;2023-04-06T11:22:47;13.00;45.30
47590;DHT22;33316;52.298;9.056;2023-04-06T11:25:14;13.00;45.80
47590;DHT22;33316;52.298;9.056;2023-04-06T11:27:43;13.10;45.80
47590;DHT22;33316;52.298;9.056;2023-04-06T11:30:10;13.10;45.90
47590;DHT22;33316;52.298;9.056;2023-04-06T11:32:39;13.10;46.00
47590;DHT22;33316;52.298;9.056;2023-04-06T11:35:06;13.20;46.70
47590;DHT22;33316;52.298;9.056;2023-04-06T11:37:32;13.30;45.80
47590;DHT22;33316;52.298;9.056;2023-04-06T11:39:59;13.30;45.40
47590;DHT22;33316;52.298;9.056;2023-04-06T11:42:26;13.30;46.10
47590;DHT22;33316;52.298;9.056;2023-04-06T11:44:55;13.30;46.10
47590;DHT22;33316;52.298;9.056;2023-04-06T11:47:27;13.30;45.60
47590;DHT22;33316;52.298;9.056;2023-04-06T11:49:54;13.30;46.00
47590;DHT22;33316;52.298;9.056;2023-04-06T11:52:21;13.40;47.00
47590;DHT22;33316;52.298;9.056;2023-04-06T11:54:48;13.50;45.50
47590;DHT22;33316;52.298;9.056;2023-04-06T11:57:16;13.50;45.90
47590;DHT22;33316;52.298;9.056;2023-04-06T11:59:43;13.50;45.80
47590;DHT22;33316;52.298;9.056;2023-04-06T12:02:11;13.50;46.30
47590;DHT22;33316;52.298;9.056;2023-04-06T12:04:37;13.50;44.50
47590;DHT22;33316;52.298;9.056;2023-04-06T12:07:04;13.40;45.20
47590;DHT22;33316;52.298;9.056;2023-04-06T12:09:30;13.40;44.70
47590;DHT22;33316;52.298;9.056;2023-04-06T12:11:57;13.40;45.50
47590;DHT22;33316;52.298;9.056;2023-04-06T12:14:23;13.40;46.40
47590;DHT22;33316;52.298;9.056;2023-04-06T12:16:50;13.50;46.50
47590;DHT22;33316;52.298;9.056;2023-04-06T12:19:18;13.50;46.60
47590;DHT22;33316;52.298;9.056;2023-04-06T12:21:44;13.60;46.70
47590;DHT22;33316;52.298;9.056;2023-04-06T12:24:11;13.60;46.00
47590;DHT22;33316;52.298;9.056;2023-04-06T12:26:37;13.70;46.00
47590;DHT22;33316;52.298;9.056;2023-04-06T12:29:04;13.70;45.40
47590;DHT22;33316;52.298;9.056;2023-04-06T12:31:32;13.70;45.80
47590;DHT22;33316;52.298;9.056;2023-04-06T12:33:59;13.80;45.70
47590;DHT22;33316;52.298;9.056;2023-04-06T12:36:28;13.80;46.00
47590;DHT22;33316;52.298;9.056;2023-04-06T12:38:56;13.90;45.00
47590;DHT22;33316;52.298;9.056;2023-04-06T12:41:22;13.90;45.60
47590;DHT22;33316;52.298;9.056;2023-04-06T12:43:50;14.00;45.40
47590;DHT22;33316;52.298;9.056;2023-04-06T12:46:16;14.00;45.50
47590;DHT22;33316;52.298;9.056;2023-04-06T12:48:43;14.00;45.00
47590;DHT22;33316;52.298;9.056;2023-04-06T12:51:09;14.10;45.10
47590;DHT22;33316;52.298;9.056;2023-04-06T12:53:37;14.10;44.40
47590;DHT22;33316;52.298;9.056;2023-04-06T12:56:10;14.10;44.80
47590;DHT22;33316;52.298;9.056;2023-04-06T12:58:37;14.10;44.40
47590;DHT22;33316;52.298;9.056;2023-04-06T13:01:05;14.20;42.50
47590;DHT22;33316;52.298;9.056;2023-04-06T13:03:32;14.20;41.70
47590;DHT22;33316;52.298;9.056;2023-04-06T13:05:59;14.10;41.30
47590;DHT22;33316;52.298;9.056;2023-04-06T13:08:25;14.10;43.30
47590;DHT22;33316;52.298;9.056;2023-04-06T13:10:53;14.20;43.40
47590;DHT22;33316;52.298;9.056;2023-04-06T13:13:22;14.20;42.80
47590;DHT22;33316;52.298;9.056;2023-04-06T13:15:48;14.20;42.90
47590;DHT22;33316;52.298;9.056;2023-04-06T13:18:15;14.30;42.50
47590;DHT22;33316;52.298;9.056;2023-04-06T13:20:42;14.30;43.40
47590;DHT22;33316;52.298;9.056;2023-04-06T13:23:09;14.40;43.30
47590;DHT22;33316;52.298;9.056;2023-04-06T13:25:35;14.40;41.90
47590;DHT22;33316;52.298;9.056;2023-04-06T13:28:03;14.40;42.40
47590;DHT22;33316;52.298;9.056;2023-04-06T13:30:30;14.40;42.80
47590;DHT22;33316;52.298;9.056;2023-04-06T13:32:56;14.40;42.30
47590;DHT22;33316;52.298;9.056;2023-04-06T13:35:23;14.40;42.80
47590;DHT22;33316;52.298;9.056;2023-04-06T13:37:49;14.50;43.40
47590;DHT22;33316;52.298;9.056;2023-04-06T13:40:17;14.50;42.00
47590;DHT22;33316;52.298;9.056;2023-04-06T13:42:44;14.50;41.90
47590;DHT22;33316;52.298;9.056;2023-04-06T13:45:12;14.50;43.00
47590;DHT22;33316;52.298;9.056;2023-04-06T13:47:39;14.50;42.60
47590;DHT22;33316;52.298;9.056;2023-04-06T13:50:06;14.50;43.30
47590;DHT22;33316;52.298;9.056;2023-04-06T13:52:33;14.60;43.50
47590;DHT22;33316;52.298;9.056;2023-04-06T13:55:01;14.60;43.50
47590;DHT22;33316;52.298;9.056;2023-04-06T13:57:27;14.70;43.00
47590;DHT22;33316;52.298;9.056;2023-04-06T13:59:55;14.70;43.20
47590;DHT22;33316;52.298;9.056;2023-04-06T14:02:22;14.70;43.20
47590;DHT22;33316;52.298;9.056;2023-04-06T14:04:52;14.70;43.40
47590;DHT22;33316;52.298;9.056;2023-04-06T14:07:19;14.70;43.30
47590;DHT22;33316;52.298;9.056;2023-04-06T14:09:45;14.80;43.30
47590;DHT22;33316;52.298;9.056;2023-04-06T14:12:12;14.80;43.20
47590;DHT22;33316;52.298;9.056;2023-04-06T14:14:38;14.80;43.10
47590;DHT22;33316;52.298;9.056;2023-04-06T14:17:05;14.80;43.70
47590;DHT22;33316;52.298;9.056;2023-04-06T14:19:33;14.80;43.00
47590;DHT22;33316;52.298;9.056;2023-04-06T14:21:59;14.90;43.40
47590;DHT22;33316;52.298;9.056;2023-04-06T14:24:26;14.90;43.10
47590;DHT22;33316;52.298;9.056;2023-04-06T14:26:52;15.00;42.90
47590;DHT22;33316;52.298;9.056;2023-04-06T14:29:19;15.00;42.80
47590;DHT22;33316;52.298;9.056;2023-04-06T14:31:46;15.00;43.30
47590;DHT22;33316;52.298;9.056;2023-04-06T14:34:13;15.00;43.00
47590;DHT22;33316;52.298;9.056;2023-04-06T14:36:41;15.00;42.00
47590;DHT22;33316;52.298;9.056;2023-04-06T14:39:08;15.00;42.20
47590;DHT22;33316;52.298;9.056;2023-04-06T14:41:35;14.90;42.00
47590;DHT22;33316;52.298;9.056;2023-04-06T14:44:02;14.90;42.20
47590;DHT22;33316;52.298;9.056;2023-04-06T14:46:29;14.90;43.30
47590;DHT22;33316;52.298;9.056;2023-04-06T14:48:55;15.00;43.30
47590;DHT22;33316;52.298;9.056;2023-04-06T14:51:23;15.00;42.50
47590;DHT22;33316;52.298;9.056;2023-04-06T14:53:51;15.00;43.30
47590;DHT22;33316;52.298;9.056;2023-04-06T14:56:18;15.00;43.60
47590;DHT22;33316;52.298;9.056;2023-04-06T14:58:45;15.00;43.50
47590;DHT22;33316;52.298;9.056;2023-04-06T15:01:12;15.00;43.10
47590;DHT22;33316;52.298;9.056;2023-04-06T15:03:38;15.00;42.80
47590;DHT22;33316;52.298;9.056;2023-04-06T15:06:05;15.00;43.30
47590;DHT22;33316;52.298;9.056;2023-04-06T15:08:32;15.00;43.30
47590;DHT22;33316;52.298;9.056;2023-04-06T15:11:00;15.00;43.00
47590;DHT22;33316;52.298;9.056;2023-04-06T15:13:27;15.00;43.00
47590;DHT22;33316;52.298;9.056;2023-04-06T15:15:54;15.00;42.80
47590;DHT22;33316;52.298;9.056;2023-04-06T15:18:21;15.00;42.90
47590;DHT22;33316;52.298;9.056;2023-04-06T15:20:47;15.00;43.00
47590;DHT22;33316;52.298;9.056;2023-04-06T15:23:14;14.90;43.20
47590;DHT22;33316;52.298;9.056;2023-04-06T15:25:40;15.00;42.90
47590;DHT22;33316;52.298;9.056;2023-04-06T15:28:08;15.00;42.90
47590;DHT22;33316;52.298;9.056;2023-04-06T15:30:35;15.00;43.30
47590;DHT22;33316;52.298;9.056;2023-04-06T15:33:02;15.00;42.70
47590;DHT22;33316;52.298;9.056;2023-04-06T15:35:30;14.90;43.20
47590;DHT22;33316;52.298;9.056;2023-04-06T15:37:57;14.90;43.10
47590;DHT22;33316;52.298;9.056;2023-04-06T15:40:23;14.90;43.00
47590;DHT22;33316;52.298;9.056;2023-04-06T15:42:50;14.90;43.60
47590;DHT22;33316;52.298;9.056;2023-04-06T15:45:18;14.90;43.50
47590;DHT22;33316;52.298;9.056;2023-04-06T15:47:45;14.90;43.30
47590;DHT22;33316;52.298;9.056;2023-04-06T15:50:11;14.80;42.80
47590;DHT22;33316;52.298;9.056;2023-04-06T15:52:38;14.80;43.10
47590;DHT22;33316;52.298;9.056;2023-04-06T15:55:06;14.80;43.50
47590;DHT22;33316;52.298;9.056;2023-04-06T15:57:33;14.80;43.80
47590;DHT22;33316;52.298;9.056;2023-04-06T16:00:00;14.80;43.90
47590;DHT22;33316;52.298;9.056;2023-04-06T16:02:28;14.80;43.50
47590;DHT22;33316;52.298;9.056;2023-04-06T16:04:55;14.80;43.60
47590;DHT22;33316;52.298;9.056;2023-04-06T16:07:22;14.80;43.90
47590;DHT22;33316;52.298;9.056;2023-04-06T16:09:48;14.80;43.90
47590;DHT22;33316;52.298;9.056;2023-04-06T16:12:15;14.80;43.50
47590;DHT22;33316;52.298;9.056;2023-04-06T16:14:42;14.80;43.10
47590;DHT22;33316;52.298;9.056;2023-04-06T16:17:08;14.80;43.50
47590;DHT22;33316;52.298;9.056;2023-04-06T16:19:36;14.70;43.70
47590;DHT22;33316;52.298;9.056;2023-04-06T16:22:03;14.70;44.20
47590;DHT22;33316;52.298;9.056;2023-04-06T16:24:30;14.70;43.70
47590;DHT22;33316;52.298;9.056;2023-04-06T16:26:56;14.70;44.00
47590;DHT22;33316;52.298;9.056;2023-04-06T16:29:23;14.70;44.60
47590;DHT22;33316;52.298;9.056;2023-04-06T16:31:50;14.70;45.10
47590;DHT22;33316;52.298;9.056;2023-04-06T16:34:17;14.60;45.30
47590;DHT22;33316;52.298;9.056;2023-04-06T16:36:44;14.60;45.20
47590;DHT22;33316;52.298;9.056;2023-04-06T16:39:11;14.60;45.00
47590;DHT22;33316;52.298;9.056;2023-04-06T16:41:38;14.60;45.00
47590;DHT22;33316;52.298;9.056;2023-04-06T16:44:05;14.60;45.10
47590;DHT22;33316;52.298;9.056;2023-04-06T16:46:32;14.50;45.10
47590;DHT22;33316;52.298;9.056;2023-04-06T16:48:58;14.50;45.00
47590;DHT22;33316;52.298;9.056;2023-04-06T16:51:25;14.50;45.20
47590;DHT22;33316;52.298;9.056;2023-04-06T16:53:56;14.50;45.10
47590;DHT22;33316;52.298;9.056;2023-04-06T16:56:23;14.50;45.10
47590;DHT22;33316;52.298;9.056;2023-04-06T16:58:50;14.40;45.10
47590;DHT22;33316;52.298;9.056;2023-04-06T17:01:17;14.40;44.70
47590;DHT22;33316;52.298;9.056;2023-04-06T17:03:43;14.40;44.60
47590;DHT22;33316;52.298;9.056;2023-04-06T17:06:11;14.40;45.20
47590;DHT22;33316;52.298;9.056;2023-04-06T17:08:38;14.30;44.40